Stevensville, MT (59870)

2:13 AM MDT on October 24, 2014 (GMT -0600)
MPG Ranch - Orchard House | Change Station
CLOSE
Current Station
Personal Weather Station
Location: Florence, MT
Elevation: 3392 ft
Nearby Weather Stations

Elev 3392 ft 46.68 °N, 114.03 °W | Updated 2 minutes ago

Overcast
Overcast
47.1 °F
Feels Like 45 °F
N
5.0
Wind Variable Wind from North
Gusts 11.0 mph

Today
High -- | Low -- °F
--% Chance of Precip.
Yesterday
High -- | Low -- °F
Precip. -- in
8:06 AM 6:33 PM
New Moon, 0% visible
Pressure 30.04 in
Visibility 10.0 miles
Clouds Overcast 6500 ft
Windchill 45 °F
Dew Point 40 °F
Humidity 75%
Rainfall 0.00 in
Snow Depth Not available.
UV 0.0 out of 12
Pollen 1.70 out of 12
Air Quality Not available.
Flu Activity No Activity
METAR KMSO 240753Z AUTO 00000KT 10SM OVC065 09/04 A3004 RMK AO2 SLP170 T00890044

More Conditions Fewer Conditions

Pressure 30.04 in
Visibility 10.0 miles
Clouds Overcast 6500 ft
Windchill 45 °F
Dew Point 40 °F
Humidity 75%
Rainfall 0.00 in
Snow Depth Not available.
UV 0.0 out of 12
Pollen 1.70 out of 12
Air Quality Not available.
Flu Activity No Activity
METAR KMSO 240753Z AUTO 00000KT 10SM OVC065 09/04 A3004 RMK AO2 SLP170 T00890044

More Conditions Fewer Conditions

10-Day Weather Forecast

Almanac

Astronomy

Oct. 24, 2014 Rise Set
Actual Time 8:06 AM MDT 6:33 PM MDT
Civil Twilight 7:35 AM MDT 7:04 PM MDT
Nautical Twilight 7:00 AM MDT 7:39 PM MDT
Astronomical Twilight 6:25 AM MDT 8:14 PM MDT
Moon 8:51 AM MDT 7:13 PM MDT
Length of Visible Light 11h 29m
Length of Day
10h 27m
Tomorrow will be 3m 5s shorter.
New Moon, 0% of the Moon is Illuminated
Today
New Moon
Oct 30
First Quarter
Nov 6
Full
Nov 14
Last Quarter
Nov 22
New

Today's Extremes

State Highs State Lows

Community

WunderPhotos

Upload Photos

1,764,511 photos uploaded!

WunderBlogs® & News

Nearby

Snow Depth

Station Depth Elevation
Daly Creek 0 in 5780 ft
Black Pine 1 in 7210 ft
Combination 0 in 5600 ft
Twelvemile Creek 0 in 5600 ft
Twin Lakes 0 in 6400 ft

Earthquake Activity

City Distance Mag. Time & Date
No recent earthquake activity has been reported nearby.
Minimum magnitude displayed is 2.5.

Coastal Water Temperatures

Place Temperature
No Stations Reporting

Nearby Weather Stations